Ana Sayfa
METAR-TAF:

METAR-TAF

Havaalanları :

Dinwiddie County Airport

Petersburg, Virginia, Amerika Birleşik Devletleri

Enlem: 37-11N, Boylam: 077-31W, yükseklik: 59 m

Güncel hava durumu gözlemi

Rapor saat 04:35 UTC de 17 dakika önce yapıldı.
Rüzgar güney/güneybatıdan 8 kt ve 15 kt'a kadar ani rüzgarlar
Sıcaklık 16°C
Nem 82%
Basınç 1013 hPa
Görüş mesafesi: 16.1 km
1800 ft yükseklikte parçalı çok bulutlu
12000 ft yükseklikte çok bulutlu

METAR: KPTB 100435Z AUTO 21008G15KT 10SM BKN018 OVC120 16/13 A2992 RMK AO2 T01620132

Saat: 23:52 (04:52 UTC)


TAF: eksik

4.000'den fazla havaalanı için hava durumu gözlemleri ve tahminleri (METAR ve TAF raporları).

Kullanılabilir istasyonlar harita üzerinde sarı ve kırmızı noktalarla gösterilir.

İstasyonun adını görmek için fareyi noktanın üzerinde gezdirin.

Sonrasında hava gözlem ve tahminlerini görmek için tıklayın.

Haritayı değiştirmek için: yaklaştırmak için siyah artı işaretli yeşil düğmeye ve uzaklaştırmak için de eksi işaretli düğmeye hızla tıklayın; bitişik haritalar için yeşil okları kullanın.


METAR-TAF: